createdAt,value
2022-12-17T00:02:46.987Z,13.65
2022-12-17T00:04:07.725Z,14.73
2022-12-17T00:05:29.910Z,12.23
2022-12-17T00:06:53.938Z,13.27
2022-12-17T00:08:19.051Z,14.32
2022-12-17T00:09:39.849Z,13.63
2022-12-17T00:11:03.268Z,11.98
2022-12-17T00:12:24.585Z,12.60
2022-12-17T00:13:48.147Z,16.13
2022-12-17T00:15:08.721Z,16.27
2022-12-17T00:16:31.063Z,15.32
2022-12-17T00:18:00.269Z,12.73
2022-12-17T00:19:24.394Z,13.07
2022-12-17T00:20:45.275Z,19.38
2022-12-17T00:22:09.997Z,11.48
2022-12-17T00:23:30.715Z,13.55
2022-12-17T00:26:28.580Z,16.50
2022-12-17T00:27:49.926Z,16.95
2022-12-17T00:29:11.379Z,19.15
2022-12-17T00:30:32.299Z,14.57
2022-12-17T00:31:56.932Z,18.23
2022-12-17T00:33:19.431Z,16.83
2022-12-17T00:36:15.674Z,14.63
2022-12-17T00:39:13.043Z,13.32
2022-12-17T00:40:34.226Z,13.95
2022-12-17T00:41:58.089Z,16.00
2022-12-17T00:43:30.276Z,15.15
2022-12-17T00:44:53.763Z,14.90
2022-12-17T00:46:24.407Z,12.50
2022-12-17T00:47:44.807Z,17.15
2022-12-17T00:49:12.856Z,12.18
2022-12-17T00:50:38.061Z,12.25
2022-12-17T00:52:00.399Z,15.35
2022-12-17T00:53:24.389Z,18.02
2022-12-17T00:56:25.539Z,12.88
2022-12-17T01:00:54.589Z,11.70
2022-12-17T01:02:25.109Z,15.57
2022-12-17T01:03:48.367Z,10.98
2022-12-17T01:05:09.513Z,13.57
2022-12-17T01:06:31.194Z,11.32
2022-12-17T01:07:52.802Z,16.75
2022-12-17T01:09:14.116Z,16.98
2022-12-17T01:10:36.948Z,11.57
2022-12-17T01:13:36.759Z,12.40
2022-12-17T01:14:57.771Z,16.48
2022-12-17T01:16:32.189Z,12.98
2022-12-17T01:17:54.520Z,14.15
2022-12-17T01:19:21.397Z,15.02
2022-12-17T01:20:45.044Z,12.98
2022-12-17T01:22:06.468Z,16.38
2022-12-17T01:23:28.109Z,13.80
2022-12-17T01:24:49.621Z,14.40
2022-12-17T01:26:16.031Z,15.50
2022-12-17T01:27:37.099Z,16.55
2022-12-17T01:28:59.718Z,15.30
2022-12-17T01:31:57.325Z,14.02
2022-12-17T01:33:24.194Z,15.02
2022-12-17T01:34:44.584Z,12.63
2022-12-17T01:36:04.833Z,15.07
2022-12-17T01:37:28.693Z,14.20
2022-12-17T01:38:58.032Z,12.85
2022-12-17T01:40:19.947Z,12.50
2022-12-17T01:41:50.051Z,19.05
2022-12-17T01:43:10.386Z,15.80
2022-12-17T01:45:08.670Z,12.55
2022-12-17T01:46:29.352Z,15.10
2022-12-17T01:48:13.758Z,12.65
2022-12-17T01:49:34.285Z,15.65
2022-12-17T01:52:35.294Z,14.68
2022-12-17T01:54:10.864Z,13.45
2022-12-17T01:55:31.170Z,13.30
2022-12-17T01:56:54.099Z,11.07
2022-12-17T01:58:28.637Z,13.73
2022-12-17T02:00:01.842Z,13.60
2022-12-17T02:01:23.101Z,16.13
2022-12-17T02:02:43.895Z,15.48
2022-12-17T02:04:05.467Z,12.68
2022-12-17T02:05:29.113Z,14.85
2022-12-17T02:06:59.396Z,12.45
2022-12-17T02:08:58.402Z,11.63
2022-12-17T02:10:53.400Z,13.00
2022-12-17T02:12:58.236Z,12.70
2022-12-17T02:14:25.837Z,15.60
2022-12-17T02:16:13.372Z,12.63
2022-12-17T02:17:39.905Z,12.15
2022-12-17T02:19:13.266Z,14.93
2022-12-17T02:20:43.883Z,15.52
2022-12-17T02:22:11.782Z,11.82
2022-12-17T02:23:56.586Z,15.30
2022-12-17T02:25:36.000Z,13.63
2022-12-17T02:27:02.749Z,16.17
2022-12-17T02:28:23.786Z,11.98
2022-12-17T02:29:47.443Z,16.73
2022-12-17T02:31:09.352Z,14.43
2022-12-17T02:32:32.792Z,16.33
2022-12-17T02:33:54.610Z,11.60
2022-12-17T02:35:16.245Z,10.90
2022-12-17T02:36:37.870Z,14.70
2022-12-17T02:38:04.687Z,16.83
2022-12-17T02:39:25.453Z,12.55
2022-12-17T02:40:46.642Z,13.25
2022-12-17T02:42:14.058Z,15.20
2022-12-17T02:43:39.081Z,13.55
2022-12-17T02:46:36.912Z,13.75
2022-12-17T02:47:58.836Z,17.77
2022-12-17T02:49:20.826Z,15.40
2022-12-17T02:50:45.507Z,11.05
2022-12-17T02:52:06.751Z,16.63
2022-12-17T02:53:28.662Z,13.35
2022-12-17T02:54:50.449Z,12.07
2022-12-17T02:56:12.339Z,14.80
2022-12-17T02:57:32.455Z,15.88
2022-12-17T02:58:53.368Z,15.65
2022-12-17T03:00:14.924Z,11.70
2022-12-17T03:01:35.457Z,12.68
2022-12-17T03:02:56.854Z,15.27
2022-12-17T03:04:17.273Z,10.88
2022-12-17T03:05:45.968Z,15.00
2022-12-17T03:07:06.380Z,13.82
2022-12-17T03:08:26.675Z,19.60
2022-12-17T03:09:47.483Z,16.67
2022-12-17T03:11:07.622Z,14.15
2022-12-17T03:12:27.921Z,12.32
2022-12-17T03:13:50.446Z,13.80
2022-12-17T03:15:12.425Z,13.90
2022-12-17T03:16:37.713Z,14.10
2022-12-17T03:18:00.401Z,12.88
2022-12-17T03:19:21.661Z,14.30
2022-12-17T03:20:42.048Z,14.80
2022-12-17T03:22:02.458Z,13.25
2022-12-17T03:23:25.265Z,10.90
2022-12-17T03:24:46.243Z,13.25
2022-12-17T03:26:08.306Z,10.82
2022-12-17T03:27:28.581Z,11.40
2022-12-17T03:28:48.959Z,14.98
2022-12-17T03:30:10.833Z,12.45
2022-12-17T03:31:31.646Z,13.80
2022-12-17T03:32:53.074Z,12.93
2022-12-17T03:34:13.324Z,17.23
2022-12-17T03:35:33.792Z,16.88
2022-12-17T03:36:54.041Z,15.32
2022-12-17T03:38:14.886Z,15.68
2022-12-17T03:39:35.429Z,13.27
2022-12-17T03:40:56.421Z,12.18
2022-12-17T03:42:17.178Z,19.42
2022-12-17T03:43:37.793Z,16.73
2022-12-17T03:44:58.608Z,12.98
2022-12-17T03:46:21.144Z,14.75
2022-12-17T03:47:41.663Z,11.38
2022-12-17T03:49:02.078Z,12.18
2022-12-17T03:50:23.875Z,15.07
2022-12-17T03:51:51.819Z,15.93
2022-12-17T03:53:12.213Z,19.55
2022-12-17T03:54:33.366Z,13.70
2022-12-17T03:55:53.788Z,12.27
2022-12-17T03:57:16.253Z,11.50
2022-12-17T03:58:36.935Z,11.52
2022-12-17T03:59:59.873Z,14.18
2022-12-17T04:01:20.775Z,14.45
2022-12-17T04:02:43.223Z,15.07
2022-12-17T04:04:03.828Z,13.95
2022-12-17T04:05:24.822Z,13.23
2022-12-17T04:06:47.026Z,16.63
2022-12-17T04:08:07.285Z,12.90
2022-12-17T04:09:29.014Z,13.75
2022-12-17T04:10:49.297Z,16.80
2022-12-17T04:12:09.588Z,14.68
2022-12-17T04:13:30.304Z,13.38
2022-12-17T04:14:51.082Z,14.00
2022-12-17T04:16:11.795Z,13.75
2022-12-17T04:17:32.029Z,12.38
2022-12-17T04:18:52.576Z,14.35
2022-12-17T04:20:13.215Z,13.55
2022-12-17T04:21:34.151Z,16.15
2022-12-17T04:22:54.422Z,12.73
2022-12-17T04:24:14.470Z,13.63
2022-12-17T04:25:34.785Z,13.15
2022-12-17T04:26:57.227Z,11.30
2022-12-17T04:28:17.680Z,15.45
2022-12-17T04:29:41.099Z,16.00
2022-12-17T04:31:01.861Z,15.02
2022-12-17T04:32:22.786Z,13.02
2022-12-17T04:33:43.274Z,16.90
2022-12-17T04:35:03.402Z,17.00
2022-12-17T04:36:24.069Z,14.07
2022-12-17T04:37:44.306Z,12.35
2022-12-17T04:39:05.753Z,14.60
2022-12-17T04:40:29.363Z,15.63
2022-12-17T04:41:49.809Z,15.55
2022-12-17T04:43:10.540Z,11.90
2022-12-17T04:44:30.914Z,14.35
2022-12-17T04:45:51.596Z,11.27
2022-12-17T04:47:12.534Z,12.73
2022-12-17T04:48:33.330Z,14.88
2022-12-17T04:49:53.581Z,13.57
2022-12-17T04:51:14.358Z,16.63
2022-12-17T04:52:35.280Z,15.50
2022-12-17T04:53:55.755Z,15.50
2022-12-17T04:55:15.843Z,15.63
2022-12-17T04:56:36.301Z,16.83
2022-12-17T04:57:56.850Z,15.70
2022-12-17T04:59:17.261Z,12.63
2022-12-17T05:00:37.796Z,17.17
2022-12-17T05:02:00.002Z,14.20
2022-12-17T05:03:30.302Z,18.08
2022-12-17T05:04:51.069Z,12.77
2022-12-17T05:06:12.229Z,14.15
2022-12-17T05:07:32.885Z,14.55
2022-12-17T05:08:53.435Z,16.20
2022-12-17T05:10:13.630Z,15.23
2022-12-17T05:11:34.858Z,14.45
2022-12-17T05:12:55.548Z,18.60
2022-12-17T05:14:24.324Z,18.83
2022-12-17T05:15:51.331Z,15.02
2022-12-17T05:17:14.875Z,12.32
2022-12-17T05:18:37.464Z,15.70
2022-12-17T05:20:02.148Z,16.67
2022-12-17T05:21:22.476Z,12.45
2022-12-17T05:22:43.461Z,11.25
2022-12-17T05:24:03.715Z,16.10
2022-12-17T05:25:24.703Z,16.70
2022-12-17T05:26:57.131Z,14.40
2022-12-17T05:28:19.196Z,19.10
2022-12-17T05:29:39.520Z,18.90
2022-12-17T05:31:04.718Z,12.82
2022-12-17T05:32:25.409Z,14.00
2022-12-17T05:33:46.989Z,18.50
2022-12-17T05:35:09.636Z,17.35
2022-12-17T05:36:30.355Z,16.83
2022-12-17T05:37:51.465Z,17.25
2022-12-17T05:39:13.809Z,21.77
2022-12-17T05:40:38.541Z,16.20
2022-12-17T05:41:59.117Z,20.15
2022-12-17T05:43:25.534Z,16.08
2022-12-17T05:44:48.565Z,21.15
2022-12-17T05:46:10.520Z,17.75
2022-12-17T05:47:34.534Z,16.75
2022-12-17T05:48:55.888Z,18.63
2022-12-17T05:50:20.774Z,15.93
2022-12-17T05:51:43.081Z,18.40
2022-12-17T05:53:03.883Z,15.82
2022-12-17T05:54:24.490Z,13.82
2022-12-17T05:55:46.762Z,17.83
2022-12-17T05:57:12.704Z,16.63
2022-12-17T05:58:33.366Z,15.45
2022-12-17T05:59:57.571Z,15.27
2022-12-17T06:01:19.643Z,16.92
2022-12-17T06:02:40.246Z,15.18
2022-12-17T06:04:08.128Z,17.65
2022-12-17T06:05:28.631Z,16.80
2022-12-17T06:06:53.030Z,15.63
2022-12-17T06:08:23.573Z,13.20
2022-12-17T06:09:45.594Z,20.35
2022-12-17T06:11:05.868Z,17.48
2022-12-17T06:12:32.862Z,19.33
2022-12-17T06:13:56.879Z,16.27
2022-12-17T06:15:18.327Z,16.83
2022-12-17T06:16:39.588Z,17.08
2022-12-17T06:18:02.864Z,15.05
2022-12-17T06:21:03.490Z,16.00
2022-12-17T06:22:25.200Z,19.08
2022-12-17T06:23:47.753Z,13.90
2022-12-17T06:25:09.986Z,19.33
2022-12-17T06:26:37.276Z,19.75
2022-12-17T06:33:04.509Z,17.50
2022-12-17T06:34:27.113Z,14.85
2022-12-17T06:35:47.424Z,13.52
2022-12-17T06:37:10.759Z,20.83
2022-12-17T06:38:31.913Z,15.10
2022-12-17T06:43:12.240Z,12.68
2022-12-17T06:44:58.228Z,21.52
2022-12-17T06:46:19.689Z,15.63
2022-12-17T06:47:42.138Z,14.60
2022-12-17T06:50:41.635Z,17.38
2022-12-17T06:52:09.543Z,18.70
2022-12-17T06:53:35.340Z,14.45
2022-12-17T06:54:58.527Z,19.08
2022-12-17T06:56:19.537Z,16.13
2022-12-17T06:57:47.440Z,16.08
2022-12-17T06:59:28.844Z,18.98
2022-12-17T07:00:56.726Z,17.17
2022-12-17T07:02:19.233Z,14.73
2022-12-17T07:03:42.574Z,15.57
2022-12-17T07:05:08.851Z,19.65
2022-12-17T07:06:32.301Z,19.42
2022-12-17T07:07:53.019Z,16.27
2022-12-17T07:09:14.922Z,21.35
2022-12-17T07:10:35.646Z,23.15
2022-12-17T07:13:30.080Z,21.75
2022-12-17T07:14:59.561Z,16.10
2022-12-17T07:18:04.017Z,21.70
2022-12-17T07:22:51.648Z,20.23
2022-12-17T07:24:11.740Z,22.13
2022-12-17T07:25:32.167Z,18.77
2022-12-17T07:26:52.476Z,17.50
2022-12-17T07:28:16.291Z,16.83
2022-12-17T07:29:36.366Z,16.77
2022-12-17T07:30:56.897Z,16.83
2022-12-17T07:32:17.676Z,16.45
2022-12-17T07:33:38.114Z,19.00
2022-12-17T07:34:59.083Z,18.77
2022-12-17T07:36:33.246Z,22.90
2022-12-17T07:37:53.590Z,19.15
2022-12-17T07:39:14.147Z,18.27
2022-12-17T07:40:34.723Z,18.00
2022-12-17T07:41:57.638Z,24.45
2022-12-17T07:43:19.199Z,18.65
2022-12-17T07:44:39.448Z,15.95
2022-12-17T07:46:00.231Z,21.23
2022-12-17T07:47:20.714Z,13.63
2022-12-17T07:48:41.061Z,20.30
2022-12-17T07:50:01.672Z,23.17
2022-12-17T07:51:22.142Z,15.00
2022-12-17T07:52:42.687Z,14.90
2022-12-17T07:54:03.036Z,16.92
2022-12-17T07:55:23.257Z,19.25
2022-12-17T07:56:52.686Z,15.68
2022-12-17T07:58:27.765Z,19.42
2022-12-17T07:59:47.929Z,14.90
2022-12-17T08:01:09.675Z,20.10
2022-12-17T08:02:32.779Z,23.92
2022-12-17T08:03:55.328Z,15.70
2022-12-17T08:05:15.739Z,13.88
2022-12-17T08:06:36.677Z,12.63
2022-12-17T08:08:00.325Z,17.70
2022-12-17T08:09:21.402Z,18.20
2022-12-17T08:10:43.732Z,18.02
2022-12-17T08:12:04.094Z,16.00
2022-12-17T08:13:25.159Z,16.75
2022-12-17T08:14:45.475Z,16.77
2022-12-17T08:16:11.929Z,18.67
2022-12-17T08:17:35.016Z,14.63
2022-12-17T08:18:55.492Z,14.05
2022-12-17T08:20:16.015Z,15.23
2022-12-17T08:21:36.961Z,14.10
2022-12-17T08:23:01.031Z,23.02
2022-12-17T08:24:21.332Z,19.83
2022-12-17T08:25:44.025Z,15.77
2022-12-17T08:27:04.627Z,16.80
2022-12-17T08:31:49.211Z,16.27
2022-12-17T08:33:11.237Z,14.60
2022-12-17T08:34:32.302Z,24.63
2022-12-17T08:35:54.104Z,18.65
2022-12-17T08:37:16.979Z,19.35
2022-12-17T08:38:37.343Z,17.55
2022-12-17T08:41:35.845Z,19.00
2022-12-17T08:42:56.043Z,15.45
2022-12-17T08:44:16.810Z,16.75
2022-12-17T08:45:38.592Z,19.67
2022-12-17T08:47:01.180Z,18.38
2022-12-17T08:48:27.561Z,17.75
2022-12-17T08:49:48.006Z,16.20
2022-12-17T08:51:09.090Z,17.55
2022-12-17T08:52:32.404Z,12.35
2022-12-17T08:53:52.909Z,17.05
2022-12-17T08:55:15.658Z,12.60
2022-12-17T08:56:37.098Z,14.73
2022-12-17T08:58:00.236Z,14.98
2022-12-17T08:59:20.673Z,20.73
2022-12-17T09:00:41.289Z,18.98
2022-12-17T09:02:02.006Z,15.00
2022-12-17T09:03:22.604Z,18.48
2022-12-17T09:04:44.434Z,19.10
2022-12-17T09:06:06.912Z,21.77
2022-12-17T09:07:38.549Z,20.08
2022-12-17T09:11:32.716Z,16.85
2022-12-17T09:14:53.831Z,16.55
2022-12-17T09:16:17.225Z,16.13
2022-12-17T09:17:39.847Z,17.48
2022-12-17T09:19:01.164Z,21.02
2022-12-17T09:20:28.913Z,23.08
2022-12-17T09:21:50.534Z,21.05
2022-12-17T09:23:10.772Z,19.88
2022-12-17T09:24:31.713Z,18.90
2022-12-17T09:25:57.868Z,25.20
2022-12-17T09:27:18.554Z,23.52
2022-12-17T09:28:39.016Z,17.67
2022-12-17T09:29:59.717Z,19.23
2022-12-17T09:31:20.324Z,21.05
2022-12-17T09:33:03.594Z,19.92
2022-12-17T09:34:24.760Z,22.33
2022-12-17T09:35:45.261Z,23.67
2022-12-17T09:37:08.200Z,21.90
2022-12-17T09:38:32.852Z,25.60
2022-12-17T09:39:53.585Z,24.00
2022-12-17T09:41:25.343Z,18.83
2022-12-17T09:43:03.754Z,20.38
2022-12-17T09:45:03.070Z,16.58
2022-12-17T09:46:38.835Z,19.77
2022-12-17T09:48:18.126Z,20.60
2022-12-17T09:49:46.359Z,23.77
2022-12-17T09:51:10.696Z,17.73
2022-12-17T09:52:46.349Z,16.90
2022-12-17T09:54:11.633Z,18.25
2022-12-17T09:55:52.426Z,18.75
2022-12-17T09:57:12.631Z,20.30
2022-12-17T09:58:44.721Z,23.15
2022-12-17T10:00:04.755Z,25.67
2022-12-17T10:01:37.461Z,25.75
2022-12-17T10:02:58.036Z,20.33
2022-12-17T10:04:18.950Z,15.30
2022-12-17T10:05:49.743Z,16.75
2022-12-17T10:07:10.579Z,19.77
2022-12-17T10:08:35.550Z,19.95
2022-12-17T10:09:58.988Z,16.35
2022-12-17T10:11:57.598Z,18.05
2022-12-17T10:13:19.290Z,18.08
2022-12-17T10:14:42.123Z,18.73
2022-12-17T10:16:03.730Z,18.25
2022-12-17T10:17:24.817Z,23.45
2022-12-17T10:18:47.169Z,20.75
2022-12-17T10:21:52.768Z,15.77
2022-12-17T10:23:21.676Z,16.98
2022-12-17T10:24:43.329Z,18.05
2022-12-17T10:26:22.081Z,18.75
2022-12-17T10:27:42.961Z,18.48
2022-12-17T10:29:03.473Z,19.90
2022-12-17T10:30:36.468Z,19.65
2022-12-17T10:32:36.943Z,24.75
2022-12-17T10:35:44.754Z,16.45
2022-12-17T10:37:10.306Z,17.33
2022-12-17T10:38:40.619Z,18.52
2022-12-17T10:40:02.798Z,16.70
2022-12-17T10:41:23.682Z,22.05
2022-12-17T10:42:57.700Z,20.20
2022-12-17T10:44:19.172Z,21.83
2022-12-17T10:45:42.587Z,18.17
2022-12-17T10:47:03.062Z,22.10
2022-12-17T10:48:40.351Z,18.27
2022-12-17T10:50:00.733Z,18.17
2022-12-17T10:51:22.611Z,18.92
2022-12-17T10:53:04.411Z,17.38
2022-12-17T10:54:41.620Z,21.27
2022-12-17T10:56:14.302Z,19.95
2022-12-17T10:57:51.703Z,19.65
2022-12-17T10:59:13.080Z,16.00
2022-12-17T11:00:49.714Z,19.70
2022-12-17T11:02:17.025Z,22.70
2022-12-17T11:03:56.666Z,16.13
2022-12-17T11:05:37.595Z,21.08
2022-12-17T11:07:02.606Z,19.55
2022-12-17T11:08:23.370Z,17.98
2022-12-17T11:09:47.949Z,17.08
2022-12-17T11:12:53.237Z,21.83
2022-12-17T11:14:17.702Z,21.35
2022-12-17T11:15:53.571Z,24.13
2022-12-17T11:17:29.157Z,18.90
2022-12-17T11:19:01.422Z,22.27
2022-12-17T11:20:31.013Z,23.27
2022-12-17T11:21:58.111Z,21.77
2022-12-17T11:23:19.472Z,17.83
2022-12-17T11:24:47.543Z,21.30
2022-12-17T11:26:23.002Z,14.73
2022-12-17T11:27:47.742Z,21.40
2022-12-17T11:29:11.474Z,21.98
2022-12-17T11:30:39.505Z,17.85
2022-12-17T11:32:29.451Z,14.63
2022-12-17T11:34:02.847Z,20.10
2022-12-17T11:35:43.239Z,17.55
2022-12-17T11:37:34.634Z,20.70
2022-12-17T11:39:28.994Z,24.50
2022-12-17T11:41:02.354Z,21.50
2022-12-17T11:42:35.575Z,21.17
2022-12-17T11:44:09.791Z,18.73
2022-12-17T11:45:58.610Z,20.92
2022-12-17T11:47:40.835Z,22.23
2022-12-17T11:49:10.247Z,26.27
2022-12-17T11:50:49.456Z,20.08
2022-12-17T11:52:33.189Z,17.40
2022-12-17T11:54:26.644Z,23.33
2022-12-17T11:55:55.151Z,22.20
2022-12-17T11:57:36.318Z,20.90
2022-12-17T11:59:04.081Z,21.33
2022-12-17T12:00:42.561Z,24.30
2022-12-17T12:02:32.082Z,19.75
2022-12-17T12:04:17.503Z,21.27
2022-12-17T12:05:42.345Z,16.20
2022-12-17T12:07:34.322Z,15.98
2022-12-17T12:09:09.437Z,22.98
2022-12-17T12:10:53.018Z,21.90
2022-12-17T12:12:32.237Z,23.50
2022-12-17T12:14:12.783Z,18.23
2022-12-17T12:16:02.202Z,17.48
2022-12-17T12:18:13.200Z,20.48
2022-12-17T12:20:23.664Z,19.67
2022-12-17T12:22:19.061Z,15.32
2022-12-17T12:24:02.886Z,17.65
2022-12-17T12:25:54.507Z,22.23
2022-12-17T12:27:43.198Z,25.27
2022-12-17T12:29:11.217Z,24.52
2022-12-17T12:30:50.802Z,22.65
2022-12-17T12:32:29.512Z,19.45
2022-12-17T12:34:02.832Z,22.38
2022-12-17T12:35:26.003Z,20.23
2022-12-17T12:36:49.045Z,18.75
2022-12-17T12:38:13.525Z,20.52
2022-12-17T12:39:49.025Z,19.70
2022-12-17T12:41:23.815Z,22.55
2022-12-17T12:42:59.048Z,24.73
2022-12-17T12:44:25.540Z,19.77
2022-12-17T12:46:03.681Z,24.17
2022-12-17T12:47:31.581Z,18.77
2022-12-17T12:49:13.691Z,23.50
2022-12-17T12:50:48.993Z,16.85
2022-12-17T12:52:17.942Z,27.08
2022-12-17T12:53:40.540Z,17.30
2022-12-17T12:55:03.792Z,19.05
2022-12-17T12:56:46.022Z,19.13
2022-12-17T12:58:18.987Z,23.20
2022-12-17T12:59:51.120Z,24.48
2022-12-17T13:01:13.378Z,23.20
2022-12-17T13:02:39.415Z,21.10
2022-12-17T13:05:40.438Z,18.42
2022-12-17T13:06:44.996Z,22.17
2022-12-17T13:10:40.762Z,22.90
2022-12-17T13:11:46.005Z,26.10
2022-12-17T13:12:49.260Z,23.00
2022-12-17T13:13:58.317Z,25.75
2022-12-17T13:15:20.916Z,21.33
2022-12-17T13:16:31.245Z,26.55
2022-12-17T13:17:55.227Z,26.58
2022-12-17T13:19:22.217Z,26.25
2022-12-17T13:20:28.915Z,20.98
2022-12-17T13:21:31.847Z,25.65
2022-12-17T13:22:33.760Z,22.83
2022-12-17T13:23:38.275Z,20.63
2022-12-17T13:24:46.875Z,26.33
2022-12-17T13:25:49.565Z,24.23
2022-12-17T13:26:53.089Z,23.02
2022-12-17T13:27:54.745Z,26.90
2022-12-17T13:29:02.548Z,24.73
2022-12-17T13:30:24.435Z,22.65
2022-12-17T13:31:46.508Z,18.58
2022-12-17T13:33:33.944Z,20.80
2022-12-17T13:35:20.088Z,23.52
2022-12-17T13:36:57.096Z,20.40
2022-12-17T13:38:26.983Z,19.33
2022-12-17T13:39:34.037Z,20.85
2022-12-17T13:41:06.641Z,26.70
2022-12-17T13:42:36.381Z,20.48
2022-12-17T13:43:54.582Z,20.42
2022-12-17T13:44:58.850Z,23.27
2022-12-17T13:46:01.259Z,24.15
2022-12-17T13:47:03.423Z,25.17
2022-12-17T13:48:05.342Z,23.55
2022-12-17T13:49:21.617Z,21.63
2022-12-17T13:50:34.358Z,24.23
2022-12-17T13:51:37.526Z,26.38
2022-12-17T13:52:43.134Z,25.13
2022-12-17T13:53:53.171Z,25.63
2022-12-17T13:55:07.036Z,22.25
2022-12-17T13:56:10.735Z,29.98
2022-12-17T13:58:33.496Z,27.13
2022-12-17T13:59:35.447Z,22.73
2022-12-17T14:00:38.044Z,25.02
2022-12-17T14:01:50.832Z,21.42
2022-12-17T14:02:53.704Z,27.33
2022-12-17T14:04:08.223Z,26.08
2022-12-17T14:05:57.504Z,27.45
2022-12-17T14:07:05.467Z,25.70
2022-12-17T14:08:07.212Z,25.52
2022-12-17T14:09:18.600Z,28.95
2022-12-17T14:10:20.982Z,30.60
2022-12-17T14:11:41.522Z,27.63
2022-12-17T14:12:43.848Z,24.30
2022-12-17T14:13:48.811Z,26.02
2022-12-17T14:15:03.187Z,18.35
2022-12-17T14:16:05.668Z,21.92
2022-12-17T14:17:17.410Z,22.67
2022-12-17T14:18:21.728Z,24.85
2022-12-17T14:19:25.437Z,23.75
2022-12-17T14:20:30.961Z,25.92
2022-12-17T14:21:32.662Z,27.58
2022-12-17T14:22:51.353Z,20.88
2022-12-17T14:23:56.103Z,27.80
2022-12-17T14:24:58.022Z,26.25
2022-12-17T14:26:00.601Z,30.65
2022-12-17T14:27:03.451Z,24.67
2022-12-17T14:28:20.196Z,24.90
2022-12-17T14:29:27.747Z,30.85
2022-12-17T14:30:29.506Z,22.42
2022-12-17T14:31:31.178Z,27.50
2022-12-17T14:32:37.386Z,38.20
2022-12-17T14:33:39.142Z,25.42
2022-12-17T14:34:42.337Z,27.02
2022-12-17T14:35:52.215Z,26.67
2022-12-17T14:36:57.557Z,33.15
2022-12-17T14:37:59.730Z,30.35
2022-12-17T14:39:11.014Z,29.15
2022-12-17T14:40:15.566Z,25.92
2022-12-17T14:41:37.101Z,27.88
2022-12-17T14:42:39.588Z,26.52
2022-12-17T14:43:41.564Z,31.00
2022-12-17T14:44:51.536Z,25.92
2022-12-17T14:46:19.705Z,26.98
2022-12-17T14:47:35.809Z,26.98
2022-12-17T14:48:56.468Z,32.20
2022-12-17T14:50:21.470Z,26.17
2022-12-17T14:51:41.342Z,27.23
2022-12-17T14:52:53.097Z,29.60
2022-12-17T14:54:32.271Z,27.15
2022-12-17T14:55:41.486Z,23.02
2022-12-17T14:56:44.469Z,21.13
2022-12-17T14:57:46.996Z,27.45
2022-12-17T14:58:48.684Z,25.70
2022-12-17T14:59:52.589Z,31.15
2022-12-17T15:01:04.644Z,29.58
2022-12-17T15:02:09.332Z,26.55
2022-12-17T15:03:29.719Z,29.80
2022-12-17T15:04:33.091Z,26.40
2022-12-17T15:05:35.500Z,25.70
2022-12-17T15:06:37.313Z,24.95
2022-12-17T15:07:39.460Z,30.80
2022-12-17T15:08:45.837Z,21.38
2022-12-17T15:09:48.567Z,26.55
2022-12-17T15:10:50.362Z,27.55
2022-12-17T15:11:52.118Z,25.55
2022-12-17T15:12:53.876Z,29.48
2022-12-17T15:13:56.818Z,24.02
2022-12-17T15:14:58.851Z,27.02
2022-12-17T15:16:00.613Z,21.45
2022-12-17T15:17:02.352Z,26.10
2022-12-17T15:18:04.195Z,31.60
2022-12-17T15:19:06.243Z,23.83
2022-12-17T15:20:16.877Z,24.55
2022-12-17T15:21:19.046Z,26.17
2022-12-17T15:22:23.625Z,18.88
2022-12-17T15:23:25.449Z,22.60
2022-12-17T15:24:28.469Z,22.65
2022-12-17T15:25:30.232Z,25.00
2022-12-17T15:26:31.862Z,25.33
2022-12-17T15:27:33.499Z,27.95
2022-12-17T15:28:36.032Z,22.52
2022-12-17T15:29:39.179Z,20.45
2022-12-17T15:30:40.960Z,26.92
2022-12-17T15:31:44.147Z,26.88
2022-12-17T15:32:46.241Z,27.52
2022-12-17T15:33:47.891Z,25.90
2022-12-17T15:34:51.106Z,26.38
2022-12-17T15:35:52.815Z,22.65
2022-12-17T15:36:54.910Z,26.00
2022-12-17T15:37:56.689Z,31.70
2022-12-17T15:38:59.261Z,31.08
2022-12-17T15:40:01.208Z,27.40
2022-12-17T15:41:32.071Z,28.27
2022-12-17T15:42:52.619Z,20.63
2022-12-17T15:43:54.303Z,22.98
2022-12-17T15:44:55.911Z,27.30
2022-12-17T15:46:01.512Z,21.02
2022-12-17T15:47:03.502Z,22.73
2022-12-17T15:48:05.419Z,20.25
2022-12-17T15:49:07.094Z,26.88
2022-12-17T15:50:09.493Z,19.08
2022-12-17T15:51:17.834Z,19.25
2022-12-17T15:52:21.043Z,23.45
2022-12-17T15:53:26.007Z,23.73
2022-12-17T15:54:27.864Z,22.92
2022-12-17T15:55:30.193Z,26.58
2022-12-17T15:56:34.758Z,28.73
2022-12-17T15:57:36.479Z,23.90
2022-12-17T15:58:40.414Z,28.35
2022-12-17T15:59:42.417Z,21.45
2022-12-17T16:00:44.082Z,24.77
2022-12-17T16:01:49.870Z,24.92
2022-12-17T16:02:52.076Z,29.70
2022-12-17T16:03:54.581Z,23.75
2022-12-17T16:04:56.424Z,24.25
2022-12-17T16:06:01.540Z,24.50
2022-12-17T16:07:03.883Z,23.17
2022-12-17T16:08:08.230Z,26.55
2022-12-17T16:09:12.066Z,31.10
2022-12-17T16:10:14.636Z,22.55
2022-12-17T16:11:16.271Z,26.50
2022-12-17T16:12:17.965Z,26.45
2022-12-17T16:13:19.618Z,22.67
2022-12-17T16:14:24.688Z,24.50
2022-12-17T16:15:26.595Z,19.85
2022-12-17T16:16:29.914Z,21.60
2022-12-17T16:17:32.103Z,25.10
2022-12-17T16:18:33.923Z,25.38
2022-12-17T16:19:35.756Z,30.13
2022-12-17T16:20:37.478Z,21.77
2022-12-17T16:21:44.975Z,23.52
2022-12-17T16:22:50.351Z,23.10
2022-12-17T16:23:52.307Z,27.88
2022-12-17T16:24:55.450Z,22.45
2022-12-17T16:25:59.070Z,23.55
2022-12-17T16:27:04.633Z,23.88
2022-12-17T16:28:06.638Z,25.42
2022-12-17T16:29:08.530Z,27.00
2022-12-17T16:30:11.481Z,26.80
2022-12-17T16:31:16.393Z,30.05
2022-12-17T16:32:18.493Z,30.38
2022-12-17T16:33:20.119Z,25.77
2022-12-17T16:34:21.795Z,26.52
2022-12-17T16:35:24.685Z,26.85
2022-12-17T16:36:26.520Z,30.23
2022-12-17T16:37:28.265Z,28.73
2022-12-17T16:38:31.879Z,25.00
2022-12-17T16:39:33.546Z,31.48
2022-12-17T16:40:35.213Z,29.50
2022-12-17T16:41:36.865Z,25.60
2022-12-17T16:42:38.593Z,31.48
2022-12-17T16:43:42.021Z,29.65
2022-12-17T16:44:44.962Z,20.60
2022-12-17T16:45:49.108Z,30.30
2022-12-17T16:46:52.194Z,22.27
2022-12-17T16:47:53.870Z,27.83
2022-12-17T16:48:57.626Z,26.80
2022-12-17T16:49:59.924Z,24.13
2022-12-17T16:51:18.251Z,28.38
2022-12-17T16:52:22.872Z,26.80
2022-12-17T16:53:26.836Z,24.20
2022-12-17T16:54:31.040Z,28.25
2022-12-17T16:55:33.249Z,30.20
2022-12-17T16:56:39.968Z,26.55
2022-12-17T16:57:44.142Z,23.60
2022-12-17T16:58:46.051Z,23.92
2022-12-17T16:59:48.863Z,21.50
2022-12-17T17:00:54.530Z,27.63
2022-12-17T17:01:57.585Z,22.77
2022-12-17T17:02:59.695Z,27.75
2022-12-17T17:04:01.567Z,25.80
2022-12-17T17:05:03.437Z,21.08
2022-12-17T17:06:05.902Z,24.42
2022-12-17T17:07:08.113Z,28.23
2022-12-17T17:08:10.368Z,26.52
2022-12-17T17:09:13.017Z,29.17
2022-12-17T17:10:14.783Z,30.20
2022-12-17T17:11:19.297Z,26.08
2022-12-17T17:12:21.656Z,28.05
2022-12-17T17:13:23.292Z,31.30
2022-12-17T17:14:26.368Z,33.20
2022-12-17T17:15:30.873Z,27.63
2022-12-17T17:16:34.320Z,25.65
2022-12-17T17:17:54.319Z,25.10
2022-12-17T17:18:58.048Z,23.55
2022-12-17T17:20:00.655Z,23.63
2022-12-17T17:21:23.824Z,26.95
2022-12-17T17:22:25.503Z,29.88
2022-12-17T17:23:30.803Z,31.75
2022-12-17T17:24:34.918Z,30.35
2022-12-17T17:25:57.434Z,23.00
2022-12-17T17:27:01.636Z,22.38
2022-12-17T17:28:05.277Z,28.05
2022-12-17T17:29:08.131Z,24.70
2022-12-17T17:30:10.933Z,22.17
2022-12-17T17:31:15.186Z,30.65
2022-12-17T17:32:16.992Z,31.88
2022-12-17T17:33:19.356Z,26.42
2022-12-17T17:34:21.219Z,30.38
2022-12-17T17:35:22.863Z,31.27
2022-12-17T17:36:27.435Z,34.42
2022-12-17T17:37:29.203Z,27.35
2022-12-17T17:38:32.463Z,36.13
2022-12-17T17:39:35.801Z,32.10
2022-12-17T17:40:37.501Z,33.75
2022-12-17T17:41:39.778Z,30.23
2022-12-17T17:42:41.544Z,28.58
2022-12-17T17:43:43.235Z,25.10
2022-12-17T17:44:45.020Z,26.40
2022-12-17T17:45:47.379Z,33.17
2022-12-17T17:46:49.202Z,29.25
2022-12-17T17:47:51.094Z,31.42
2022-12-17T17:48:56.882Z,27.90
2022-12-17T17:49:58.770Z,25.52
2022-12-17T17:51:04.549Z,33.10
2022-12-17T17:52:10.867Z,32.22
2022-12-17T17:53:16.031Z,30.80
2022-12-17T17:54:17.902Z,29.13
2022-12-17T17:55:19.578Z,21.48
2022-12-17T17:56:27.990Z,24.63
2022-12-17T17:57:30.046Z,27.83